10 de agosto de 2022

Hora Código Clima Temp. Visibilidade Tecto Vento METAR/SPECI
8:00 da manhã
V
63 °F 15 mi 26.000 ft 300° 300° 4 kt METAR CYYZ 101200Z 30004KT 15SM FEW220 BKN260 17/15 A3012 RMK CC2CI3 SLP202 DENSITY ALT 800FT
7:00 da manhã
V
61 °F 15 mi 26.000 ft 330° 330° 5 kt METAR CYYZ 101100Z 33005KT 15SM FEW230 BKN260 16/15 A3011 RMK CC2CI3 SLP198 DENSITY ALT 700FT
6:00 da manhã
V
59 °F 15 mi - 310° 310° 4 kt METAR CYYZ 101000Z 31004KT 15SM SCT250 15/15 A3010 RMK CC4 SLP195 DENSITY ALT 600FT
5:00 da manhã
V
61 °F 15 mi - 350° 350° 3 kt METAR CYYZ 100900Z 35003KT 15SM FEW250 16/16 A3010 RMK CI1 CI TR SLP196 DENSITY ALT 700FT
4:00 da manhã
V
61 °F 15 mi - 340° 340° 5 kt METAR CYYZ 100800Z 34005KT 15SM SKC 16/16 A3010 RMK SLP196 DENSITY ALT 700FT
3:00 da manhã
V
63 °F 15 mi - 360° 360° 4 kt METAR CYYZ 100700Z 36004KT 15SM FEW040 17/16 A3010 RMK SC1 SLP195 DENSITY ALT 700FT
2:00 da manhã
V
64 °F 15 mi - Var Var 2 kt METAR CYYZ 100600Z VRB02KT 15SM FEW042 18/15 A3010 RMK SC1 SLP195 DENSITY ALT 900FT
1:00 da manhã
V
64 °F 15 mi - 260° 260° 3 kt METAR CYYZ 100500Z 26003KT 15SM FEW035 FEW045 18/15 A3010 RMK SC1SC1 SC TR SLP194 DENSITY ALT 900FT
12:00 da manhã
V
66 °F 15 mi 4.700 ft 240° 240° 3 kt METAR CYYZ 100400Z 24003KT 15SM SCT030 BKN047 19/16 A3009 RMK SC3SC3 SLP191 DENSITY ALT 1000FT

9 de agosto de 2022

Hora Código Clima Temp. Visibilidade Tecto Vento METAR/SPECI
11:00 da tarde
V
68 °F 15 mi 4.800 ft 160° 160° 4 kt METAR CYYZ 100300Z 16004KT 15SM BKN048 20/16 A3008 RMK SC6 SLP186 DENSITY ALT 1100FT
10:00 da tarde
V
68 °F 15 mi 3.500 ft 150° 150° 2 kt METAR CYYZ 100200Z 15002KT 15SM BKN035 20/15 A3007 RMK SC5 SLP183 DENSITY ALT 1200FT
9:00 da tarde
V
68 °F 15 mi - 030° 030° 4 kt METAR CYYZ 100100Z 03004KT 15SM SCT050 SCT250 20/13 A3006 RMK SC3CI1 CI TR SLP181 DENSITY ALT 1100FT
8:00 da tarde
V
70 °F 15 mi - 020° 020° 7 kt METAR CYYZ 100000Z 02007KT 15SM FEW035 SCT045 SCT080 21/14 A3005 RMK CF1SC4AC1 CF TR AC TR SLP177 DENSITY ALT 1300FT
7:00 da tarde
V
72 °F 15 mi 4.500 ft 360° 360° 9 kt METAR CYYZ 092300Z 36009KT 330V030 15SM FEW035 BKN045 BKN080 22/14 A3004 RMK CF1SC5AC1 CF TR SLP173 DENSITY ALT 1400FT
6:00 da tarde
V
72 °F 15 mi 4.900 ft 320° 320° 8 kt METAR CYYZ 092200Z 32008KT 15SM FEW035 BKN049 22/14 A3004 RMK CU2SC5 SLP173 DENSITY ALT 1400FT
5:00 da tarde
V
72 °F 15 mi 5.000 ft 330° 330° 12 kt METAR CYYZ 092100Z 33012KT 290V020 15SM SCT033 BKN050 22/14 A3004 RMK CU3SC4 SLP173 DENSITY ALT 1400FT
4:00 da tarde
V
72 °F 15 mi 4.000 ft 330° 330° 9 - 15 kt METAR CYYZ 092000Z 33009G15KT 320V020 15SM SCT031 BKN040 22/14 A3004 RMK CU3SC4 SLP173 DENSITY ALT 1400FT
3:00 da tarde
V
70 °F 15 mi 4.500 ft 030° 030° 8 kt METAR CYYZ 091900Z 03008KT 330V050 15SM SCT031 OVC045 21/15 A3004 RMK CU3SC5 SLP175 DENSITY ALT 1400FT
2:00 da tarde
V
72 °F 15 mi 3.700 ft 360° 360° 10 - 16 kt METAR CYYZ 091800Z 36010G16KT 15SM BKN037 22/14 A3004 RMK SC7 SLP175 DENSITY ALT 1400FT
1:00 da tarde
V
68 °F 15 mi 3.300 ft 340° 340° 13 kt METAR CYYZ 091700Z 34013KT 15SM BKN033 20/14 A3005 RMK SC7 SLP176 DENSITY ALT 1200FT
12:00 da tarde
V
68 °F 15 mi 3.200 ft 350° 350° 10 kt METAR CYYZ 091600Z 35010KT 15SM BKN032 20/15 A3004 RMK SC7 SLP174 DENSITY ALT 1200FT
11:00 da manhã
M
68 °F 15 mi 2.400 ft 330° 330° 14 kt METAR CYYZ 091500Z 33014KT 15SM BKN024 BKN040 20/15 A3004 RMK SC6SC1 SLP171 DENSITY ALT 1200FT
10:00 da manhã
M
66 °F 15 mi 2.300 ft 350° 350° 11 kt METAR CYYZ 091400Z 35011KT 15SM OVC023 19/15 A3003 RMK SC8 SLP168 DENSITY ALT 1100FT
9:00 da manhã
M
66 °F 15 mi 2.600 ft 310° 310° 10 - 15 kt METAR CYYZ 091300Z 31010G15KT 15SM OVC026 19/14 A3001 RMK SC8 SLP163 DENSITY ALT 1100FT
8:00 da manhã
M
64 °F 15 mi 2.400 ft 320° 320° 10 - 17 kt METAR CYYZ 091200Z 32010G17KT 15SM OVC024 18/14 A2999 RMK SC8 SLP157 DENSITY ALT 1100FT
7:00 da manhã
M
64 °F 15 mi 2.000 ft 320° 320° 11 - 17 kt METAR CYYZ 091100Z 32011G17KT 15SM BKN020 18/14 A2997 RMK SC7 SLP148 DENSITY ALT 1100FT
6:00 da manhã
M
64 °F 15 mi 2.200 ft 330° 330° 17 - 24 kt METAR CYYZ 091000Z 33017G24KT 15SM BKN022 18/14 A2994 RMK SC7 SLP138 DENSITY ALT 1100FT
5:00 da manhã
V
64 °F 15 mi - 320° 320° 9 kt METAR CYYZ 090900Z 32009KT 15SM FEW020 FEW250 18/16 A2992 RMK SC1CI1 SLP131 DENSITY ALT 1100FT
4:00 da manhã
V
64 °F 15 mi - 310° 310° 10 - 16 kt METAR CYYZ 090800Z 31010G16KT 15SM FEW021 18/16 A2991 RMK SC2 SLP127 DENSITY ALT 1100FT
3:00 da manhã
M
66 °F 15 mi 2.100 ft 320° 320° 13 - 18 kt METAR CYYZ 090700Z 32013G18KT 15SM BKN021 19/16 A2989 RMK SC5 SLP119 DENSITY ALT 1300FT
2:00 da manhã
M
68 °F 15 mi 2.000 ft 330° 330° 16 - 22 kt METAR CYYZ 090600Z 33016G22KT 15SM BKN020 20/16 A2987 RMK SC6 SLP115 DENSITY ALT 1400FT
1:00 da manhã
V
70 °F 15 mi 25.000 ft 310° 310° 13 - 19 kt METAR CYYZ 090500Z 31013G19KT 15SM SCT021 BKN250 21/18 A2987 RMK SC3CI2 SLP114 DENSITY ALT 1500FT
12:00 da manhã
V
72 °F 15 mi 25.000 ft 300° 300° 13 - 18 kt METAR CYYZ 090400Z 30013G18KT 15SM SCT038 SCT120 BKN250 22/19 A2984 RMK SC3AC1CI2 SLP105 DENSITY ALT 1600FT

8 de agosto de 2022

Hora Código Clima Temp. Visibilidade Tecto Vento METAR/SPECI
11:00 da tarde
V
75 °F 15 mi 3.100 ft 300° 300° 17 kt METAR CYYZ 090300Z 30017KT 15SM FEW019 BKN031 24/20 A2982 RMK CF1SC5 CF TR PRESRR SLP096 DENSITY ALT 1900FT
10:00 da tarde
V
77 °F 15 mi 11.000 ft 270° 270° 12 - 18 kt METAR CYYZ 090200Z 27012G18KT 15SM SCT035 SCT051 BKN110 25/24 A2980 RMK SC3SC1AC2 SLP089 DENSITY ALT 2000FT
9:00 da tarde
V
75 °F 15 mi 4.900 ft 250° 250° 14 - 19 kt METAR CYYZ 090100Z 25014G19KT 15SM FEW035 BKN049 BKN120 BKN250 24/23 A2978 RMK CU1SC4AC1CI1 SLP085 DENSITY ALT 2000FT
8:00 da tarde
V
77 °F 15 mi 12.000 ft 260° 260° 15 kt METAR CYYZ 090000Z 26015KT 15SM FEW020 SCT035 BKN120 BKN250 25/24 A2977 RMK CU1SC2AC2CI2 SLP079 DENSITY ALT 2100FT
7:00 da tarde
V
79 °F 15 mi 12.000 ft 210° 210° 9 - 16 kt METAR CYYZ 082300Z 21009G16KT 15SM VCSH SCT025 SCT045 BKN120 BKN220 26/26 A2976 RMK CU3SC1AC2CI1 SLP078 DENSITY ALT 2200FT
6:00 da tarde
M
81 °F 15 mi 2.500 ft 230° 230° 14 - 19 kt METAR CYYZ 082200Z 23014G19KT 190V250 15SM -SHRA BKN025 BKN160 OVC220 27/24 A2979 RMK CU6AC1CI1 SLP087 DENSITY ALT 2300FT
5:00 da tarde
V
81 °F 10 mi 3.000 ft 230° 230° 15 - 21 kt METAR CYYZ 082100Z 23015G21KT 10SM VCSH BKN030 BKN085 BKN120 27/25 A2980 RMK CU5AC1AC1 SLP089 DENSITY ALT 2200FT
4:40 da tarde
V
82 °F 10 mi 3.000 ft 230° 230° 22 - 29 kt METAR CYYZ 082040Z 23022G29KT 10SM -SHRA BKN030 OVC080 28/23 A2980 RMK CU5AC3 VIS LWR SW-NE SLP091 DENSITY ALT 2400FT
4:00 da tarde
V
88 °F 15 mi 3.300 ft 240° 240° 14 - 22 kt METAR CYYZ 082000Z 24014G22KT 15SM BKN033 BKN120 31/22 A2979 RMK CU5AC2 SLP086 DENSITY ALT 2700FT
3:00 da tarde
V
88 °F 15 mi 3.800 ft 250° 250° 14 - 22 kt METAR CYYZ 081900Z 25014G22KT 15SM BKN038 BKN100 BKN180 31/22 A2982 RMK CU5AC1AC1 SLP095 DENSITY ALT 2700FT
2:00 da tarde
V
88 °F 15 mi 6.100 ft 240° 240° 15 kt METAR CYYZ 081800Z 24015KT 15SM FEW030 BKN061 BKN170 31/22 A2983 RMK CU2SC3AC2 SLP098 DENSITY ALT 2600FT
1:00 da tarde
V
82 °F 15 mi 3.000 ft 230° 230° 11 kt METAR CYYZ 081700Z 23011KT 15SM BKN030 OVC190 28/22 A2985 RMK CU7AC1 SLP107 DENSITY ALT 2300FT
12:00 da tarde
M
81 °F 15 mi 2.500 ft 220° 220° 10 - 16 kt METAR CYYZ 081600Z 22010G16KT 15SM BKN025 BKN040 OVC100 27/22 A2987 RMK SC5SC2AC1 SLP114 DENSITY ALT 2200FT
11:00 da manhã
M
79 °F 12 mi 2.300 ft 240° 240° 11 - 19 kt METAR CYYZ 081500Z 24011G19KT 12SM BKN023 BKN056 OVC090 26/23 A2989 RMK SC5SC2AC1 SLP119 DENSITY ALT 2000FT
Dados mais antigos

Nós e terceiros acompanhamos seu comportamento na internet em nosso site com cookies. Se você continuar, nós assumimos que você concorda com nossa política de cookies. Saiba mais